createdAt,value
2023-04-08T00:00:17.753Z,58.34
2023-04-08T00:02:45.094Z,58.49
2023-04-08T00:05:12.242Z,59.02
2023-04-08T00:07:39.333Z,59.29
2023-04-08T00:10:07.333Z,59.49
2023-04-08T00:12:34.585Z,59.75
2023-04-08T00:15:01.753Z,59.35
2023-04-08T00:17:28.881Z,59.28
2023-04-08T00:19:56.695Z,58.72
2023-04-08T00:22:23.799Z,58.93
2023-04-08T00:24:50.854Z,59.14
2023-04-08T00:27:18.077Z,59.24
2023-04-08T00:29:45.222Z,59.61
2023-04-08T00:32:13.198Z,59.64
2023-04-08T00:34:40.256Z,59.69
2023-04-08T00:37:07.613Z,60.31
2023-04-08T00:39:35.088Z,60.03
2023-04-08T00:42:02.256Z,60.16
2023-04-08T00:44:29.705Z,60.14
2023-04-08T00:46:56.928Z,60.79
2023-04-08T00:49:24.099Z,61.28
2023-04-08T00:51:51.610Z,61.05
2023-04-08T00:54:18.698Z,60.63
2023-04-08T00:56:46.175Z,60.59
2023-04-08T00:59:15.004Z,61.66
2023-04-08T01:01:49.071Z,62.14
2023-04-08T01:04:40.089Z,61.54
2023-04-08T01:07:16.042Z,61.11
2023-04-08T01:09:49.179Z,60.96
2023-04-08T01:12:27.412Z,61.21
2023-04-08T01:15:08.536Z,61.99
2023-04-08T01:17:38.047Z,62.63
2023-04-08T01:20:06.262Z,62.82
2023-04-08T01:22:54.871Z,62.35
2023-04-08T01:25:28.636Z,61.83
2023-04-08T01:27:59.183Z,61.62
2023-04-08T01:30:29.368Z,62.03
2023-04-08T01:32:59.893Z,62.49
2023-04-08T01:35:27.935Z,62.42
2023-04-08T01:37:56.921Z,62.58
2023-04-08T01:40:24.197Z,62.22
2023-04-08T01:42:57.066Z,62.33
2023-04-08T01:45:25.241Z,62.35
2023-04-08T01:47:53.598Z,62.42
2023-04-08T01:50:21.698Z,62.73
2023-04-08T01:52:53.060Z,62.96
2023-04-08T01:55:20.922Z,63.46
2023-04-08T01:57:53.534Z,64.50
2023-04-08T02:00:26.510Z,63.91
2023-04-08T02:02:55.454Z,63.68
2023-04-08T02:05:22.730Z,63.98
2023-04-08T02:07:50.620Z,64.43
2023-04-08T02:10:17.799Z,64.34
2023-04-08T02:12:46.243Z,64.11
2023-04-08T02:15:14.435Z,63.99
2023-04-08T02:17:44.603Z,63.47
2023-04-08T02:20:24.642Z,63.65
2023-04-08T02:23:14.936Z,63.59
2023-04-08T02:25:45.714Z,63.47
2023-04-08T02:28:15.777Z,63.57
2023-04-08T02:30:45.856Z,63.36
2023-04-08T02:33:15.474Z,63.30
2023-04-08T02:35:43.881Z,63.54
2023-04-08T02:38:11.267Z,63.48
2023-04-08T02:40:38.567Z,63.87
2023-04-08T02:43:05.700Z,63.76
2023-04-08T02:45:39.200Z,64.21
2023-04-08T02:48:06.747Z,64.81
2023-04-08T02:50:34.149Z,64.68
2023-04-08T02:53:01.547Z,64.52
2023-04-08T02:55:31.045Z,63.47
2023-04-08T02:57:58.220Z,62.90
2023-04-08T03:00:25.444Z,62.20
2023-04-08T03:02:52.739Z,61.88
2023-04-08T03:05:20.008Z,62.22
2023-04-08T03:07:47.157Z,62.27
2023-04-08T03:10:14.257Z,63.37
2023-04-08T03:12:41.359Z,63.60
2023-04-08T03:15:08.924Z,63.36
2023-04-08T03:17:36.285Z,62.96
2023-04-08T03:20:07.003Z,63.32
2023-04-08T03:22:34.824Z,63.70
2023-04-08T03:25:02.018Z,63.96
2023-04-08T03:27:29.367Z,63.93
2023-04-08T03:29:57.903Z,64.36
2023-04-08T03:32:25.316Z,64.35
2023-04-08T03:34:53.514Z,63.58
2023-04-08T03:37:20.817Z,63.77
2023-04-08T03:39:47.945Z,63.87
2023-04-08T03:42:15.254Z,64.07
2023-04-08T03:44:42.544Z,64.36
2023-04-08T03:47:09.868Z,63.90
2023-04-08T03:49:36.948Z,64.12
2023-04-08T03:52:04.141Z,64.54
2023-04-08T03:54:31.318Z,64.65
2023-04-08T03:56:58.380Z,64.81
2023-04-08T03:59:25.907Z,64.30
2023-04-08T04:01:53.700Z,63.78
2023-04-08T04:04:21.459Z,64.79
2023-04-08T04:06:48.873Z,64.51
2023-04-08T04:09:16.980Z,64.37
2023-04-08T04:11:44.202Z,64.45
2023-04-08T04:14:11.501Z,64.30
2023-04-08T04:16:38.699Z,63.74
2023-04-08T04:19:05.857Z,63.78
2023-04-08T04:21:33.979Z,63.89
2023-04-08T04:24:01.127Z,64.32
2023-04-08T04:26:28.240Z,65.04
2023-04-08T04:28:55.403Z,64.88
2023-04-08T04:31:26.522Z,65.32
2023-04-08T04:33:54.285Z,65.75
2023-04-08T04:36:21.429Z,65.88
2023-04-08T04:38:50.543Z,65.68
2023-04-08T04:41:18.437Z,65.54
2023-04-08T04:43:45.864Z,64.46
2023-04-08T04:46:13.071Z,63.92
2023-04-08T04:48:40.781Z,64.10
2023-04-08T04:51:07.930Z,63.47
2023-04-08T04:53:35.508Z,63.29
2023-04-08T04:56:02.613Z,64.21
2023-04-08T04:58:30.691Z,63.85
2023-04-08T05:00:58.247Z,64.04
2023-04-08T05:03:25.561Z,64.45
2023-04-08T05:05:54.569Z,64.22
2023-04-08T05:08:22.132Z,63.69
2023-04-08T05:10:52.660Z,63.70
2023-04-08T05:13:19.760Z,63.76
2023-04-08T05:15:46.938Z,63.22
2023-04-08T05:18:14.255Z,63.27
2023-04-08T05:20:41.338Z,63.94
2023-04-08T05:23:08.803Z,63.98
2023-04-08T05:25:36.302Z,64.34
2023-04-08T05:28:03.996Z,64.76
2023-04-08T05:30:31.512Z,64.90
2023-04-08T05:33:00.630Z,64.71
2023-04-08T05:35:29.276Z,64.20
2023-04-08T05:37:56.544Z,62.94
2023-04-08T05:40:24.092Z,63.18
2023-04-08T05:42:51.410Z,63.07
2023-04-08T05:45:19.477Z,63.17
2023-04-08T05:47:47.102Z,63.16
2023-04-08T05:50:15.180Z,63.04
2023-04-08T05:52:49.114Z,63.04
2023-04-08T05:55:23.712Z,62.11
2023-04-08T05:57:51.433Z,62.09
2023-04-08T06:00:22.835Z,61.93
2023-04-08T06:02:51.089Z,62.07
2023-04-08T06:05:19.343Z,62.22
2023-04-08T06:07:46.450Z,62.39
2023-04-08T06:10:15.289Z,62.39
2023-04-08T06:12:42.577Z,62.58
2023-04-08T06:15:10.713Z,62.55
2023-04-08T06:17:38.609Z,62.28
2023-04-08T06:20:11.870Z,61.71
2023-04-08T06:22:38.985Z,61.71
2023-04-08T06:25:06.940Z,62.22
2023-04-08T06:27:34.075Z,63.07
2023-04-08T06:30:01.423Z,62.92
2023-04-08T06:32:28.653Z,62.50
2023-04-08T06:34:55.769Z,62.67
2023-04-08T06:37:22.934Z,62.40
2023-04-08T06:39:49.995Z,62.01
2023-04-08T06:42:17.038Z,61.98
2023-04-08T06:45:00.442Z,61.43
2023-04-08T06:47:27.589Z,60.92
2023-04-08T06:49:54.656Z,60.50
2023-04-08T06:52:21.725Z,60.31
2023-04-08T06:54:48.747Z,59.56
2023-04-08T06:57:15.946Z,59.39
2023-04-08T06:59:42.984Z,59.66
2023-04-08T07:02:10.206Z,59.53
2023-04-08T07:04:37.848Z,59.20
2023-04-08T07:07:04.930Z,58.89
2023-04-08T07:09:32.633Z,58.82
2023-04-08T07:11:59.968Z,58.44
2023-04-08T07:14:27.077Z,58.37
2023-04-08T07:16:54.219Z,57.97
2023-04-08T07:19:22.713Z,58.20
2023-04-08T07:21:50.335Z,58.28
2023-04-08T07:24:17.410Z,58.24
2023-04-08T07:26:44.875Z,58.01
2023-04-08T07:29:12.080Z,58.15
2023-04-08T07:31:39.152Z,57.74
2023-04-08T07:34:06.237Z,57.79
2023-04-08T07:36:33.384Z,57.22
2023-04-08T07:39:00.703Z,56.54
2023-04-08T07:41:31.637Z,56.29
2023-04-08T07:43:58.777Z,55.47
2023-04-08T07:46:26.492Z,54.66
2023-04-08T07:48:53.712Z,54.47
2023-04-08T07:51:21.084Z,53.90
2023-04-08T07:53:48.411Z,53.38
2023-04-08T07:56:18.284Z,53.09
2023-04-08T07:58:47.226Z,53.09
2023-04-08T08:01:23.589Z,51.53
2023-04-08T08:03:53.018Z,52.13
2023-04-08T08:06:21.039Z,52.24
2023-04-08T08:08:48.407Z,51.48
2023-04-08T08:11:15.535Z,51.39
2023-04-08T08:13:42.837Z,51.28
2023-04-08T08:16:11.653Z,51.85
2023-04-08T08:18:40.593Z,51.21
2023-04-08T08:21:08.779Z,50.72
2023-04-08T08:23:36.209Z,50.33
2023-04-08T08:26:11.656Z,48.98
2023-04-08T08:28:39.839Z,48.31
2023-04-08T08:31:07.257Z,48.53
2023-04-08T08:33:34.515Z,48.36
2023-04-08T08:36:01.869Z,47.70
2023-04-08T08:38:28.991Z,47.69
2023-04-08T08:41:00.351Z,47.32
2023-04-08T08:43:29.730Z,47.59
2023-04-08T08:45:56.847Z,47.60
2023-04-08T08:48:24.018Z,47.63
2023-04-08T08:50:51.673Z,47.52
2023-04-08T08:53:19.791Z,47.28
2023-04-08T08:58:16.999Z,47.55
2023-04-08T09:00:45.011Z,46.74
2023-04-08T09:03:41.719Z,46.01
2023-04-08T09:06:10.205Z,45.75
2023-04-08T09:08:38.999Z,45.30
2023-04-08T09:11:23.841Z,45.58
2023-04-08T09:13:51.181Z,45.05
2023-04-08T09:16:20.164Z,45.34
2023-04-08T09:18:49.496Z,44.80
2023-04-08T09:21:18.311Z,44.60
2023-04-08T09:23:48.732Z,44.73
2023-04-08T09:26:22.508Z,44.78
2023-04-08T09:29:14.242Z,44.86
2023-04-08T09:31:47.348Z,44.75
2023-04-08T09:34:25.651Z,44.55
2023-04-08T09:36:54.299Z,44.87
2023-04-08T09:39:21.826Z,45.09
2023-04-08T09:41:51.289Z,44.95
2023-04-08T09:44:21.199Z,44.63
2023-04-08T09:46:52.749Z,44.33
2023-04-08T09:49:25.960Z,44.26
2023-04-08T09:52:24.790Z,44.21
2023-04-08T09:55:05.134Z,42.92
2023-04-08T09:57:42.633Z,43.82
2023-04-08T10:00:18.177Z,43.35
2023-04-08T10:03:21.419Z,43.96
2023-04-08T10:05:49.834Z,43.97
2023-04-08T10:08:17.189Z,44.25
2023-04-08T10:10:46.169Z,44.12
2023-04-08T10:13:14.934Z,44.14
2023-04-08T10:15:43.316Z,43.80
2023-04-08T10:18:10.530Z,44.53
2023-04-08T10:20:37.691Z,43.85
2023-04-08T10:23:13.344Z,44.50
2023-04-08T10:25:45.563Z,44.51
2023-04-08T10:28:17.619Z,44.35
2023-04-08T10:30:57.722Z,44.51
2023-04-08T10:33:34.978Z,44.42
2023-04-08T10:36:15.115Z,43.75
2023-04-08T10:38:43.038Z,43.67
2023-04-08T10:41:14.346Z,43.14
2023-04-08T10:43:41.914Z,43.41
2023-04-08T10:46:11.954Z,42.86
2023-04-08T10:48:39.301Z,42.63
2023-04-08T10:51:06.615Z,42.35
2023-04-08T10:53:39.812Z,41.99
2023-04-08T10:56:15.527Z,41.74
2023-04-08T10:58:56.440Z,40.45
2023-04-08T11:01:23.785Z,39.75
2023-04-08T11:03:51.700Z,39.68
2023-04-08T11:06:19.734Z,39.83
2023-04-08T11:08:47.379Z,40.26
2023-04-08T11:11:17.689Z,40.64
2023-04-08T11:13:53.219Z,40.77
2023-04-08T11:16:24.323Z,40.77
2023-04-08T11:18:51.831Z,41.58
2023-04-08T11:21:20.591Z,41.97
2023-04-08T11:23:51.922Z,42.20
2023-04-08T11:26:21.165Z,42.34
2023-04-08T11:28:52.327Z,42.74
2023-04-08T11:31:23.518Z,42.96
2023-04-08T11:33:56.420Z,43.21
2023-04-08T11:36:23.940Z,43.54
2023-04-08T11:38:54.059Z,44.40
2023-04-08T11:41:22.647Z,44.78
2023-04-08T11:43:55.153Z,45.59
2023-04-08T11:46:23.760Z,46.16
2023-04-08T11:49:08.613Z,46.52
2023-04-08T11:51:55.232Z,46.61
2023-04-08T11:54:30.472Z,46.01
2023-04-08T11:56:58.634Z,45.55
2023-04-08T11:59:28.998Z,44.86
2023-04-08T12:01:57.071Z,43.76
2023-04-08T12:04:24.388Z,42.55
2023-04-08T12:06:52.520Z,41.42
2023-04-08T12:09:19.913Z,40.68
2023-04-08T12:11:47.336Z,41.00
2023-04-08T12:14:15.235Z,41.64
2023-04-08T12:16:42.672Z,43.08
2023-04-08T12:19:09.851Z,44.80
2023-04-08T12:21:38.241Z,44.77
2023-04-08T12:24:05.613Z,44.86
2023-04-08T12:26:32.782Z,45.64
2023-04-08T12:28:59.846Z,45.96
2023-04-08T12:31:29.023Z,46.52
2023-04-08T12:33:56.203Z,46.52
2023-04-08T12:36:23.569Z,47.00
2023-04-08T12:38:50.805Z,46.83
2023-04-08T12:41:18.087Z,46.81
2023-04-08T12:43:45.608Z,46.82
2023-04-08T12:46:13.387Z,47.12
2023-04-08T12:48:41.086Z,47.48
2023-04-08T12:51:10.409Z,47.52
2023-04-08T12:53:37.718Z,47.20
2023-04-08T12:56:05.513Z,46.79
2023-04-08T12:58:32.736Z,46.88
2023-04-08T13:00:59.893Z,46.77
2023-04-08T13:03:30.412Z,47.27
2023-04-08T13:05:59.145Z,46.89
2023-04-08T13:08:26.465Z,46.35
2023-04-08T13:10:53.926Z,45.89
2023-04-08T13:13:21.217Z,45.71
2023-04-08T13:15:49.052Z,45.03
2023-04-08T13:18:16.669Z,44.05
2023-04-08T13:20:43.954Z,42.39
2023-04-08T13:23:11.986Z,40.77
2023-04-08T13:25:39.148Z,40.37
2023-04-08T13:28:06.305Z,39.79
2023-04-08T13:30:33.452Z,40.82
2023-04-08T13:33:00.638Z,41.58
2023-04-08T13:35:28.030Z,42.43
2023-04-08T13:37:55.308Z,42.43
2023-04-08T13:40:22.488Z,42.42
2023-04-08T13:42:49.719Z,42.41
2023-04-08T13:45:16.968Z,43.19
2023-04-08T13:47:44.301Z,43.48
2023-04-08T13:50:11.712Z,43.17
2023-04-08T13:52:39.016Z,43.64
2023-04-08T13:55:06.938Z,44.07
2023-04-08T13:57:34.188Z,44.14
2023-04-08T14:00:01.362Z,44.20
2023-04-08T14:02:28.801Z,44.02
2023-04-08T14:04:57.530Z,43.77
2023-04-08T14:07:24.732Z,42.81
2023-04-08T14:09:52.036Z,42.21
2023-04-08T14:12:19.170Z,42.34
2023-04-08T14:14:46.278Z,42.55
2023-04-08T14:17:13.524Z,42.36
2023-04-08T14:19:41.979Z,43.39
2023-04-08T14:22:09.231Z,43.72
2023-04-08T14:24:36.561Z,43.48
2023-04-08T14:27:03.891Z,43.70
2023-04-08T14:29:31.124Z,43.74
2023-04-08T14:31:58.414Z,44.15
2023-04-08T14:34:25.843Z,43.88
2023-04-08T14:36:53.153Z,43.94
2023-04-08T14:39:20.407Z,44.22
2023-04-08T14:41:48.162Z,44.19
2023-04-08T14:44:15.559Z,44.33
2023-04-08T14:46:42.972Z,44.02
2023-04-08T14:49:10.267Z,44.45
2023-04-08T14:51:38.174Z,44.28
2023-04-08T14:54:05.998Z,44.42
2023-04-08T14:56:33.361Z,44.65
2023-04-08T14:59:00.641Z,45.05
2023-04-08T15:01:29.023Z,45.20
2023-04-08T15:03:56.359Z,45.21
2023-04-08T15:06:23.722Z,44.95
2023-04-08T15:08:51.126Z,45.36
2023-04-08T15:11:20.798Z,45.21
2023-04-08T15:13:48.763Z,44.75
2023-04-08T15:16:16.130Z,44.21
2023-04-08T15:18:43.435Z,43.65
2023-04-08T15:21:10.625Z,43.48
2023-04-08T15:23:41.934Z,43.46
2023-04-08T15:26:10.648Z,43.23
2023-04-08T15:28:38.269Z,43.08
2023-04-08T15:31:05.961Z,42.63
2023-04-08T15:33:33.198Z,42.94
2023-04-08T15:36:04.337Z,43.45
2023-04-08T15:38:33.723Z,43.97
2023-04-08T15:41:00.982Z,44.17
2023-04-08T15:43:28.504Z,44.29
2023-04-08T15:45:55.706Z,44.15
2023-04-08T15:48:22.877Z,44.26
2023-04-08T15:50:50.022Z,44.27
2023-04-08T15:53:17.188Z,44.57
2023-04-08T15:55:44.277Z,44.75
2023-04-08T15:58:11.361Z,44.89
2023-04-08T16:00:38.507Z,44.55
2023-04-08T16:03:05.923Z,44.61
2023-04-08T16:05:35.921Z,44.53
2023-04-08T16:08:04.716Z,44.80
2023-04-08T16:10:31.873Z,44.48
2023-04-08T16:12:59.426Z,44.77
2023-04-08T16:15:26.738Z,44.73
2023-04-08T16:17:54.327Z,44.99
2023-04-08T16:23:40.150Z,45.16
2023-04-08T16:26:19.870Z,45.13
2023-04-08T16:28:47.232Z,45.18
2023-04-08T16:31:14.597Z,45.09
2023-04-08T16:33:41.891Z,45.70
2023-04-08T16:36:09.442Z,45.82
2023-04-08T16:38:37.379Z,45.85
2023-04-08T16:41:06.286Z,45.92
2023-04-08T16:43:33.435Z,46.16
2023-04-08T16:46:00.790Z,46.09
2023-04-08T16:48:28.231Z,46.12
2023-04-08T16:50:55.428Z,46.63
2023-04-08T16:53:23.057Z,46.78
2023-04-08T16:55:50.851Z,46.89
2023-04-08T16:58:21.334Z,47.10
2023-04-08T17:00:48.944Z,46.95
2023-04-08T17:03:16.996Z,46.88
2023-04-08T17:05:44.672Z,46.58
2023-04-08T17:08:12.977Z,46.84
2023-04-08T17:10:41.038Z,46.54
2023-04-08T17:13:08.236Z,46.45
2023-04-08T17:15:36.482Z,46.62
2023-04-08T17:18:03.762Z,46.60
2023-04-08T17:20:31.190Z,46.54
2023-04-08T17:22:58.618Z,46.30
2023-04-08T17:25:26.352Z,46.55
2023-04-08T17:27:53.465Z,46.39
2023-04-08T17:30:20.924Z,46.66
2023-04-08T17:32:48.329Z,46.37
2023-04-08T17:35:15.697Z,46.13
2023-04-08T17:37:42.893Z,46.62
2023-04-08T17:40:10.352Z,46.70
2023-04-08T17:42:37.751Z,47.01
2023-04-08T17:45:05.814Z,46.92
2023-04-08T17:47:32.984Z,47.32
2023-04-08T17:50:00.919Z,47.30
2023-04-08T17:52:28.108Z,47.60
2023-04-08T17:54:55.667Z,48.10
2023-04-08T17:57:22.999Z,47.79
2023-04-08T17:59:50.738Z,47.90
2023-04-08T18:02:20.676Z,48.35
2023-04-08T18:04:48.583Z,48.09
2023-04-08T18:07:18.376Z,48.26
2023-04-08T18:09:49.549Z,48.22
2023-04-08T18:12:26.221Z,48.18
2023-04-08T18:14:53.473Z,48.60
2023-04-08T18:17:28.488Z,48.55
2023-04-08T18:19:55.876Z,48.60
2023-04-08T18:22:23.039Z,49.00
2023-04-08T18:24:50.480Z,49.21
2023-04-08T18:27:17.735Z,49.25
2023-04-08T18:29:44.868Z,49.15
2023-04-08T18:32:12.032Z,49.20
2023-04-08T18:34:39.244Z,49.30
2023-04-08T18:37:06.581Z,49.16
2023-04-08T18:39:33.873Z,49.33
2023-04-08T18:42:01.573Z,49.76
2023-04-08T18:44:28.673Z,49.85
2023-04-08T18:46:56.478Z,49.85
2023-04-08T18:49:23.661Z,49.56
2023-04-08T18:52:01.350Z,49.66
2023-04-08T18:54:29.402Z,49.85
2023-04-08T18:56:56.730Z,49.92
2023-04-08T18:59:24.014Z,49.83
2023-04-08T19:01:51.336Z,49.96
2023-04-08T19:04:18.916Z,49.92
2023-04-08T19:06:46.116Z,50.12
2023-04-08T19:09:14.395Z,49.91
2023-04-08T19:11:41.646Z,50.10
2023-04-08T19:14:08.805Z,50.21
2023-04-08T19:16:36.021Z,50.31
2023-04-08T19:19:03.292Z,50.51
2023-04-08T19:21:31.801Z,50.58
2023-04-08T19:23:59.040Z,50.85
2023-04-08T19:26:26.095Z,50.69
2023-04-08T19:28:53.201Z,50.96
2023-04-08T19:31:21.642Z,51.27
2023-04-08T19:33:48.964Z,51.28
2023-04-08T19:36:16.475Z,51.45
2023-04-08T19:38:43.576Z,51.53
2023-04-08T19:41:10.943Z,51.66
2023-04-08T19:43:38.060Z,52.29
2023-04-08T19:46:05.224Z,52.07
2023-04-08T19:48:34.130Z,52.52
2023-04-08T19:51:01.275Z,52.89
2023-04-08T19:53:28.416Z,52.65
2023-04-08T19:56:02.885Z,52.71
2023-04-08T19:58:30.174Z,53.38
2023-04-08T20:00:57.285Z,53.76
2023-04-08T20:03:25.979Z,54.12
2023-04-08T20:05:53.263Z,54.51
2023-04-08T20:08:20.601Z,54.54
2023-04-08T20:10:49.517Z,54.83
2023-04-08T20:13:16.759Z,55.33
2023-04-08T20:15:45.293Z,55.63
2023-04-08T20:18:13.648Z,55.71
2023-04-08T20:20:41.427Z,55.19
2023-04-08T20:23:08.543Z,55.58
2023-04-08T20:25:35.802Z,56.04
2023-04-08T20:28:03.216Z,56.47
2023-04-08T20:30:30.378Z,56.64
2023-04-08T20:32:57.667Z,56.45
2023-04-08T20:35:26.180Z,55.96
2023-04-08T20:37:53.770Z,56.20
2023-04-08T20:40:21.193Z,56.20
2023-04-08T20:42:48.443Z,56.34
2023-04-08T20:45:15.604Z,56.69
2023-04-08T20:47:44.705Z,56.72
2023-04-08T20:50:12.471Z,56.58
2023-04-08T20:52:39.729Z,57.13
2023-04-08T20:55:08.107Z,57.36
2023-04-08T20:57:35.617Z,57.65
2023-04-08T21:00:05.765Z,57.66
2023-04-08T21:02:33.798Z,57.89
2023-04-08T21:05:01.251Z,57.97
2023-04-08T21:07:28.434Z,58.23
2023-04-08T21:09:55.799Z,58.11
2023-04-08T21:12:23.070Z,58.74
2023-04-08T21:14:50.963Z,58.79
2023-04-08T21:17:18.595Z,58.55
2023-04-08T21:19:46.686Z,58.32
2023-04-08T21:22:13.912Z,58.38
2023-04-08T21:24:40.995Z,58.46
2023-04-08T21:27:08.116Z,58.43
2023-04-08T21:29:35.515Z,58.74
2023-04-08T21:32:02.711Z,58.89
2023-04-08T21:34:30.124Z,58.66
2023-04-08T21:36:57.234Z,58.35
2023-04-08T21:39:24.364Z,58.30
2023-04-08T21:41:51.452Z,58.65
2023-04-08T21:44:18.561Z,59.32
2023-04-08T21:46:45.883Z,59.33
2023-04-08T21:49:13.859Z,59.44
2023-04-08T21:51:41.081Z,59.41
2023-04-08T21:54:08.179Z,59.56
2023-04-08T21:56:35.415Z,59.45
2023-04-08T21:59:02.578Z,59.36
2023-04-08T22:01:30.506Z,59.55
2023-04-08T22:03:58.052Z,59.76
2023-04-08T22:06:32.253Z,59.89
2023-04-08T22:09:00.306Z,59.71
2023-04-08T22:11:27.468Z,59.71
2023-04-08T22:13:54.551Z,59.91
2023-04-08T22:16:21.709Z,60.00
2023-04-08T22:18:49.106Z,60.15
2023-04-08T22:21:16.385Z,60.23
2023-04-08T22:23:43.522Z,59.85
2023-04-08T22:26:10.780Z,60.01
2023-04-08T22:28:38.024Z,59.95
2023-04-08T22:31:11.638Z,59.92
2023-04-08T22:33:39.612Z,59.53
2023-04-08T22:36:06.808Z,59.47
2023-04-08T22:38:34.027Z,59.63
2023-04-08T22:41:01.389Z,59.85
2023-04-08T22:43:28.489Z,60.23
2023-04-08T22:45:55.859Z,60.23
2023-04-08T22:48:23.054Z,60.27
2023-04-08T22:50:50.166Z,60.31
2023-04-08T22:53:17.463Z,60.47
2023-04-08T22:55:44.627Z,60.40
2023-04-08T22:58:12.884Z,60.32
2023-04-08T23:00:40.051Z,60.26
2023-04-08T23:03:07.483Z,60.66
2023-04-08T23:05:34.718Z,60.66
2023-04-08T23:08:01.851Z,60.52
2023-04-08T23:10:28.931Z,60.44
2023-04-08T23:12:56.275Z,60.56
2023-04-08T23:15:23.835Z,60.45
2023-04-08T23:17:51.168Z,60.41
2023-04-08T23:20:18.423Z,60.74
2023-04-08T23:22:45.582Z,60.61
2023-04-08T23:25:12.751Z,60.96
2023-04-08T23:27:39.907Z,61.12
2023-04-08T23:30:07.922Z,61.01
2023-04-08T23:32:35.811Z,60.99
2023-04-08T23:35:03.427Z,60.99
2023-04-08T23:37:31.159Z,61.13
2023-04-08T23:39:58.175Z,60.94
2023-04-08T23:42:27.385Z,60.81
2023-04-08T23:44:55.326Z,61.00
2023-04-08T23:47:23.044Z,60.85
2023-04-08T23:49:50.117Z,61.12
2023-04-08T23:52:17.180Z,61.05
2023-04-08T23:54:44.251Z,61.07
2023-04-08T23:57:11.439Z,60.82
2023-04-08T23:59:38.469Z,60.72
